sensor_id;sensor_type;location;lat;lon;timestamp;P1;durP1;ratioP1;P2;durP2;ratioP2
53751;SDS011;41095;53.090;6.692;2023-04-25T00:00:25;10.68;;;6.30;;
53751;SDS011;41095;53.090;6.692;2023-04-25T00:02:51;15.07;;;5.72;;
53751;SDS011;41095;53.090;6.692;2023-04-25T00:05:17;17.83;;;5.43;;
53751;SDS011;41095;53.090;6.692;2023-04-25T00:07:43;12.20;;;6.38;;
53751;SDS011;41095;53.090;6.692;2023-04-25T00:10:09;18.90;;;6.05;;
53751;SDS011;41095;53.090;6.692;2023-04-25T00:12:36;15.50;;;6.03;;
53751;SDS011;41095;53.090;6.692;2023-04-25T00:15:02;12.85;;;6.03;;
53751;SDS011;41095;53.090;6.692;2023-04-25T00:17:28;12.82;;;5.75;;
53751;SDS011;41095;53.090;6.692;2023-04-25T00:19:54;9.57;;;5.38;;
53751;SDS011;41095;53.090;6.692;2023-04-25T00:22:21;17.40;;;5.97;;
53751;SDS011;41095;53.090;6.692;2023-04-25T00:24:46;14.35;;;6.15;;
53751;SDS011;41095;53.090;6.692;2023-04-25T00:27:12;16.48;;;6.35;;
53751;SDS011;41095;53.090;6.692;2023-04-25T00:29:38;15.48;;;5.35;;
53751;SDS011;41095;53.090;6.692;2023-04-25T00:32:04;18.25;;;6.38;;
53751;SDS011;41095;53.090;6.692;2023-04-25T00:34:29;11.63;;;5.05;;
53751;SDS011;41095;53.090;6.692;2023-04-25T00:36:55;11.00;;;5.28;;
53751;SDS011;41095;53.090;6.692;2023-04-25T00:39:22;28.00;;;6.93;;
53751;SDS011;41095;53.090;6.692;2023-04-25T00:41:47;14.07;;;5.18;;
53751;SDS011;41095;53.090;6.692;2023-04-25T00:44:13;18.42;;;6.45;;
53751;SDS011;41095;53.090;6.692;2023-04-25T00:46:41;18.77;;;6.53;;
53751;SDS011;41095;53.090;6.692;2023-04-25T00:49:07;14.38;;;6.63;;
53751;SDS011;41095;53.090;6.692;2023-04-25T00:51:33;16.98;;;5.95;;
53751;SDS011;41095;53.090;6.692;2023-04-25T00:54:00;13.68;;;6.47;;
53751;SDS011;41095;53.090;6.692;2023-04-25T00:56:26;15.77;;;5.85;;
53751;SDS011;41095;53.090;6.692;2023-04-25T00:58:53;15.00;;;5.82;;
53751;SDS011;41095;53.090;6.692;2023-04-25T01:01:21;13.48;;;5.70;;
53751;SDS011;41095;53.090;6.692;2023-04-25T01:03:49;19.52;;;7.88;;
53751;SDS011;41095;53.090;6.692;2023-04-25T01:06:16;12.60;;;5.57;;
53751;SDS011;41095;53.090;6.692;2023-04-25T01:08:42;14.57;;;5.90;;
53751;SDS011;41095;53.090;6.692;2023-04-25T01:11:08;13.25;;;5.00;;
53751;SDS011;41095;53.090;6.692;2023-04-25T01:13:34;13.50;;;5.13;;
53751;SDS011;41095;53.090;6.692;2023-04-25T01:16:01;17.00;;;5.88;;
53751;SDS011;41095;53.090;6.692;2023-04-25T01:18:27;11.30;;;4.95;;
53751;SDS011;41095;53.090;6.692;2023-04-25T01:20:54;11.70;;;5.57;;
53751;SDS011;41095;53.090;6.692;2023-04-25T01:23:20;12.77;;;4.97;;
53751;SDS011;41095;53.090;6.692;2023-04-25T01:25:47;12.63;;;4.70;;
53751;SDS011;41095;53.090;6.692;2023-04-25T01:28:14;16.40;;;5.47;;
53751;SDS011;41095;53.090;6.692;2023-04-25T01:30:40;15.30;;;5.38;;
53751;SDS011;41095;53.090;6.692;2023-04-25T01:33:06;10.48;;;4.40;;
53751;SDS011;41095;53.090;6.692;2023-04-25T01:35:33;13.02;;;4.90;;
53751;SDS011;41095;53.090;6.692;2023-04-25T01:37:59;11.00;;;5.18;;
53751;SDS011;41095;53.090;6.692;2023-04-25T01:40:25;8.93;;;4.53;;
53751;SDS011;41095;53.090;6.692;2023-04-25T01:42:52;9.52;;;5.03;;
53751;SDS011;41095;53.090;6.692;2023-04-25T01:45:18;10.55;;;4.28;;
53751;SDS011;41095;53.090;6.692;2023-04-25T01:47:44;15.45;;;5.05;;
53751;SDS011;41095;53.090;6.692;2023-04-25T01:50:14;15.57;;;5.43;;
53751;SDS011;41095;53.090;6.692;2023-04-25T01:52:40;10.73;;;4.40;;
53751;SDS011;41095;53.090;6.692;2023-04-25T01:55:06;11.05;;;3.92;;
53751;SDS011;41095;53.090;6.692;2023-04-25T01:57:32;10.95;;;4.50;;
53751;SDS011;41095;53.090;6.692;2023-04-25T01:59:59;7.88;;;3.80;;
53751;SDS011;41095;53.090;6.692;2023-04-25T02:02:27;9.88;;;4.25;;
53751;SDS011;41095;53.090;6.692;2023-04-25T02:04:53;10.40;;;4.22;;
53751;SDS011;41095;53.090;6.692;2023-04-25T02:07:19;9.20;;;3.50;;
53751;SDS011;41095;53.090;6.692;2023-04-25T02:09:45;9.45;;;4.25;;
53751;SDS011;41095;53.090;6.692;2023-04-25T02:12:12;15.40;;;4.78;;
53751;SDS011;41095;53.090;6.692;2023-04-25T02:14:37;14.52;;;4.32;;
53751;SDS011;41095;53.090;6.692;2023-04-25T02:17:03;9.13;;;4.30;;
53751;SDS011;41095;53.090;6.692;2023-04-25T02:19:30;8.38;;;4.85;;
53751;SDS011;41095;53.090;6.692;2023-04-25T02:21:56;10.52;;;3.70;;
53751;SDS011;41095;53.090;6.692;2023-04-25T02:24:22;10.35;;;4.40;;
53751;SDS011;41095;53.090;6.692;2023-04-25T02:26:48;8.23;;;3.88;;
53751;SDS011;41095;53.090;6.692;2023-04-25T02:29:14;11.52;;;5.70;;
53751;SDS011;41095;53.090;6.692;2023-04-25T02:31:41;8.88;;;3.80;;
53751;SDS011;41095;53.090;6.692;2023-04-25T02:34:07;8.77;;;3.97;;
53751;SDS011;41095;53.090;6.692;2023-04-25T02:36:32;11.05;;;3.70;;
53751;SDS011;41095;53.090;6.692;2023-04-25T02:39:00;7.38;;;3.75;;
53751;SDS011;41095;53.090;6.692;2023-04-25T02:41:26;10.88;;;3.50;;
53751;SDS011;41095;53.090;6.692;2023-04-25T02:43:52;9.02;;;4.07;;
53751;SDS011;41095;53.090;6.692;2023-04-25T02:46:18;8.98;;;3.85;;
53751;SDS011;41095;53.090;6.692;2023-04-25T02:48:43;15.25;;;4.95;;
53751;SDS011;41095;53.090;6.692;2023-04-25T02:51:09;11.30;;;3.88;;
53751;SDS011;41095;53.090;6.692;2023-04-25T02:53:35;11.88;;;4.20;;
53751;SDS011;41095;53.090;6.692;2023-04-25T02:56:01;9.65;;;4.13;;
53751;SDS011;41095;53.090;6.692;2023-04-25T02:58:27;13.15;;;4.40;;
53751;SDS011;41095;53.090;6.692;2023-04-25T03:00:52;12.05;;;4.00;;
53751;SDS011;41095;53.090;6.692;2023-04-25T03:03:19;11.27;;;4.30;;
53751;SDS011;41095;53.090;6.692;2023-04-25T03:05:48;14.10;;;4.47;;
53751;SDS011;41095;53.090;6.692;2023-04-25T03:08:17;12.90;;;4.75;;
53751;SDS011;41095;53.090;6.692;2023-04-25T03:10:43;13.68;;;4.20;;
53751;SDS011;41095;53.090;6.692;2023-04-25T03:13:09;8.93;;;4.35;;
53751;SDS011;41095;53.090;6.692;2023-04-25T03:15:35;11.18;;;4.00;;
53751;SDS011;41095;53.090;6.692;2023-04-25T03:18:02;11.40;;;4.13;;
53751;SDS011;41095;53.090;6.692;2023-04-25T03:20:27;9.15;;;3.50;;
53751;SDS011;41095;53.090;6.692;2023-04-25T03:22:53;10.00;;;3.58;;
53751;SDS011;41095;53.090;6.692;2023-04-25T03:25:19;7.57;;;3.72;;
53751;SDS011;41095;53.090;6.692;2023-04-25T03:27:45;13.20;;;4.30;;
53751;SDS011;41095;53.090;6.692;2023-04-25T03:30:11;9.30;;;4.57;;
53751;SDS011;41095;53.090;6.692;2023-04-25T03:32:36;8.38;;;3.55;;
53751;SDS011;41095;53.090;6.692;2023-04-25T03:35:02;11.88;;;3.72;;
53751;SDS011;41095;53.090;6.692;2023-04-25T03:37:28;7.60;;;3.45;;
53751;SDS011;41095;53.090;6.692;2023-04-25T03:39:54;11.02;;;3.85;;
53751;SDS011;41095;53.090;6.692;2023-04-25T03:42:20;9.65;;;4.03;;
53751;SDS011;41095;53.090;6.692;2023-04-25T03:44:48;14.68;;;4.45;;
53751;SDS011;41095;53.090;6.692;2023-04-25T03:47:14;16.17;;;4.72;;
53751;SDS011;41095;53.090;6.692;2023-04-25T03:49:40;8.07;;;4.05;;
53751;SDS011;41095;53.090;6.692;2023-04-25T03:52:06;11.13;;;3.40;;
53751;SDS011;41095;53.090;6.692;2023-04-25T03:54:32;7.07;;;4.03;;
53751;SDS011;41095;53.090;6.692;2023-04-25T03:56:58;8.45;;;3.05;;
53751;SDS011;41095;53.090;6.692;2023-04-25T03:59:24;11.52;;;4.00;;
53751;SDS011;41095;53.090;6.692;2023-04-25T04:01:51;7.72;;;3.58;;
53751;SDS011;41095;53.090;6.692;2023-04-25T04:04:17;8.82;;;3.70;;
53751;SDS011;41095;53.090;6.692;2023-04-25T04:06:43;9.68;;;3.50;;
53751;SDS011;41095;53.090;6.692;2023-04-25T04:09:09;8.20;;;3.38;;
53751;SDS011;41095;53.090;6.692;2023-04-25T04:11:36;10.88;;;3.97;;
53751;SDS011;41095;53.090;6.692;2023-04-25T04:14:04;11.65;;;3.58;;
53751;SDS011;41095;53.090;6.692;2023-04-25T04:16:31;9.23;;;3.78;;
53751;SDS011;41095;53.090;6.692;2023-04-25T04:18:56;7.32;;;3.90;;
53751;SDS011;41095;53.090;6.692;2023-04-25T04:21:22;8.55;;;3.80;;
53751;SDS011;41095;53.090;6.692;2023-04-25T04:23:48;7.90;;;3.47;;
53751;SDS011;41095;53.090;6.692;2023-04-25T04:26:14;10.23;;;3.90;;
53751;SDS011;41095;53.090;6.692;2023-04-25T04:28:41;8.63;;;3.47;;
53751;SDS011;41095;53.090;6.692;2023-04-25T04:31:09;6.43;;;3.38;;
53751;SDS011;41095;53.090;6.692;2023-04-25T04:33:35;11.90;;;4.05;;
53751;SDS011;41095;53.090;6.692;2023-04-25T04:36:02;8.52;;;3.60;;
53751;SDS011;41095;53.090;6.692;2023-04-25T04:38:28;10.25;;;3.22;;
53751;SDS011;41095;53.090;6.692;2023-04-25T04:40:54;8.90;;;3.53;;
53751;SDS011;41095;53.090;6.692;2023-04-25T04:43:20;12.45;;;3.60;;
53751;SDS011;41095;53.090;6.692;2023-04-25T04:45:48;9.95;;;3.17;;
53751;SDS011;41095;53.090;6.692;2023-04-25T04:48:15;8.40;;;3.80;;
53751;SDS011;41095;53.090;6.692;2023-04-25T04:50:42;8.30;;;3.83;;
53751;SDS011;41095;53.090;6.692;2023-04-25T04:53:10;10.05;;;3.65;;
53751;SDS011;41095;53.090;6.692;2023-04-25T04:55:36;11.63;;;3.65;;
53751;SDS011;41095;53.090;6.692;2023-04-25T04:58:02;11.15;;;4.38;;
53751;SDS011;41095;53.090;6.692;2023-04-25T05:00:28;9.18;;;3.00;;
53751;SDS011;41095;53.090;6.692;2023-04-25T05:02:54;5.90;;;3.10;;
53751;SDS011;41095;53.090;6.692;2023-04-25T05:05:23;10.30;;;4.03;;
53751;SDS011;41095;53.090;6.692;2023-04-25T05:07:49;13.88;;;3.60;;
53751;SDS011;41095;53.090;6.692;2023-04-25T05:10:14;8.85;;;3.30;;
53751;SDS011;41095;53.090;6.692;2023-04-25T05:12:40;8.13;;;3.67;;
53751;SDS011;41095;53.090;6.692;2023-04-25T05:15:06;10.00;;;3.10;;
53751;SDS011;41095;53.090;6.692;2023-04-25T05:17:32;9.95;;;3.67;;
53751;SDS011;41095;53.090;6.692;2023-04-25T05:19:57;9.80;;;3.60;;
53751;SDS011;41095;53.090;6.692;2023-04-25T05:22:23;9.00;;;5.40;;
53751;SDS011;41095;53.090;6.692;2023-04-25T05:24:49;11.90;;;3.90;;
53751;SDS011;41095;53.090;6.692;2023-04-25T05:27:17;13.25;;;4.47;;
53751;SDS011;41095;53.090;6.692;2023-04-25T05:29:43;10.93;;;3.53;;
53751;SDS011;41095;53.090;6.692;2023-04-25T05:32:09;7.68;;;3.40;;
53751;SDS011;41095;53.090;6.692;2023-04-25T05:34:35;8.10;;;3.22;;
53751;SDS011;41095;53.090;6.692;2023-04-25T05:37:01;5.75;;;2.85;;
53751;SDS011;41095;53.090;6.692;2023-04-25T05:39:26;10.07;;;3.33;;
53751;SDS011;41095;53.090;6.692;2023-04-25T05:41:52;12.85;;;3.40;;
53751;SDS011;41095;53.090;6.692;2023-04-25T05:44:18;9.63;;;3.95;;
53751;SDS011;41095;53.090;6.692;2023-04-25T05:46:44;8.07;;;3.80;;
53751;SDS011;41095;53.090;6.692;2023-04-25T05:49:10;9.48;;;3.97;;
53751;SDS011;41095;53.090;6.692;2023-04-25T05:51:35;8.50;;;3.58;;
53751;SDS011;41095;53.090;6.692;2023-04-25T05:54:01;9.55;;;3.70;;
53751;SDS011;41095;53.090;6.692;2023-04-25T05:56:27;13.10;;;3.95;;
53751;SDS011;41095;53.090;6.692;2023-04-25T05:58:53;9.73;;;3.45;;
53751;SDS011;41095;53.090;6.692;2023-04-25T06:01:18;10.50;;;3.72;;
53751;SDS011;41095;53.090;6.692;2023-04-25T06:03:44;11.90;;;4.22;;
53751;SDS011;41095;53.090;6.692;2023-04-25T06:06:11;10.30;;;4.35;;
53751;SDS011;41095;53.090;6.692;2023-04-25T06:08:37;10.40;;;4.28;;
53751;SDS011;41095;53.090;6.692;2023-04-25T06:11:03;10.38;;;3.83;;
53751;SDS011;41095;53.090;6.692;2023-04-25T06:13:29;7.88;;;2.92;;
53751;SDS011;41095;53.090;6.692;2023-04-25T06:15:55;11.27;;;3.22;;
53751;SDS011;41095;53.090;6.692;2023-04-25T06:18:21;5.55;;;2.85;;
53751;SDS011;41095;53.090;6.692;2023-04-25T06:20:46;15.20;;;3.92;;
53751;SDS011;41095;53.090;6.692;2023-04-25T06:23:12;10.77;;;4.75;;
53751;SDS011;41095;53.090;6.692;2023-04-25T06:25:38;14.65;;;3.90;;
53751;SDS011;41095;53.090;6.692;2023-04-25T06:28:03;5.03;;;3.10;;
53751;SDS011;41095;53.090;6.692;2023-04-25T06:30:29;8.63;;;3.58;;
53751;SDS011;41095;53.090;6.692;2023-04-25T06:32:55;12.65;;;4.03;;
53751;SDS011;41095;53.090;6.692;2023-04-25T06:35:21;12.30;;;3.08;;
53751;SDS011;41095;53.090;6.692;2023-04-25T06:37:46;9.65;;;3.10;;
53751;SDS011;41095;53.090;6.692;2023-04-25T06:40:12;8.32;;;3.13;;
53751;SDS011;41095;53.090;6.692;2023-04-25T06:42:38;10.00;;;3.40;;
53751;SDS011;41095;53.090;6.692;2023-04-25T06:45:03;10.23;;;3.03;;
53751;SDS011;41095;53.090;6.692;2023-04-25T06:47:30;6.10;;;3.63;;
53751;SDS011;41095;53.090;6.692;2023-04-25T06:49:55;8.95;;;3.42;;
53751;SDS011;41095;53.090;6.692;2023-04-25T06:52:21;8.07;;;3.08;;
53751;SDS011;41095;53.090;6.692;2023-04-25T06:54:47;7.47;;;2.97;;
53751;SDS011;41095;53.090;6.692;2023-04-25T06:57:12;8.48;;;3.25;;
53751;SDS011;41095;53.090;6.692;2023-04-25T06:59:38;4.68;;;2.38;;
53751;SDS011;41095;53.090;6.692;2023-04-25T07:02:04;9.13;;;2.90;;
53751;SDS011;41095;53.090;6.692;2023-04-25T07:04:30;5.50;;;2.58;;
53751;SDS011;41095;53.090;6.692;2023-04-25T07:06:56;4.65;;;1.88;;
53751;SDS011;41095;53.090;6.692;2023-04-25T07:09:22;7.10;;;2.40;;
53751;SDS011;41095;53.090;6.692;2023-04-25T07:11:48;6.85;;;2.30;;
53751;SDS011;41095;53.090;6.692;2023-04-25T07:14:13;3.78;;;2.08;;
53751;SDS011;41095;53.090;6.692;2023-04-25T07:16:40;4.25;;;1.80;;
53751;SDS011;41095;53.090;6.692;2023-04-25T07:19:05;10.07;;;2.60;;
53751;SDS011;41095;53.090;6.692;2023-04-25T07:21:31;10.77;;;1.95;;
53751;SDS011;41095;53.090;6.692;2023-04-25T07:23:57;6.38;;;2.15;;
53751;SDS011;41095;53.090;6.692;2023-04-25T07:26:23;6.60;;;2.33;;
53751;SDS011;41095;53.090;6.692;2023-04-25T07:28:50;5.03;;;2.22;;
53751;SDS011;41095;53.090;6.692;2023-04-25T07:31:16;9.05;;;2.72;;
53751;SDS011;41095;53.090;6.692;2023-04-25T07:33:46;5.95;;;2.05;;
53751;SDS011;41095;53.090;6.692;2023-04-25T07:36:12;7.32;;;2.10;;
53751;SDS011;41095;53.090;6.692;2023-04-25T07:38:38;5.63;;;2.22;;
53751;SDS011;41095;53.090;6.692;2023-04-25T07:41:04;3.78;;;1.40;;
53751;SDS011;41095;53.090;6.692;2023-04-25T07:43:30;4.97;;;2.13;;
53751;SDS011;41095;53.090;6.692;2023-04-25T07:45:56;2.80;;;1.58;;
53751;SDS011;41095;53.090;6.692;2023-04-25T07:48:22;3.75;;;1.45;;
53751;SDS011;41095;53.090;6.692;2023-04-25T07:50:48;3.58;;;1.70;;
53751;SDS011;41095;53.090;6.692;2023-04-25T07:53:14;6.55;;;1.52;;
53751;SDS011;41095;53.090;6.692;2023-04-25T07:55:40;3.78;;;1.75;;
53751;SDS011;41095;53.090;6.692;2023-04-25T07:58:06;3.55;;;1.92;;
53751;SDS011;41095;53.090;6.692;2023-04-25T08:00:32;5.60;;;1.85;;
53751;SDS011;41095;53.090;6.692;2023-04-25T08:02:57;3.97;;;1.75;;
53751;SDS011;41095;53.090;6.692;2023-04-25T08:05:23;5.13;;;1.90;;
53751;SDS011;41095;53.090;6.692;2023-04-25T08:07:49;7.30;;;1.98;;
53751;SDS011;41095;53.090;6.692;2023-04-25T08:10:15;3.33;;;1.50;;
53751;SDS011;41095;53.090;6.692;2023-04-25T08:12:40;7.75;;;2.15;;
53751;SDS011;41095;53.090;6.692;2023-04-25T08:15:06;4.50;;;1.67;;
53751;SDS011;41095;53.090;6.692;2023-04-25T08:17:32;4.22;;;0.98;;
53751;SDS011;41095;53.090;6.692;2023-04-25T08:19:58;2.75;;;1.17;;
53751;SDS011;41095;53.090;6.692;2023-04-25T08:22:24;2.90;;;1.10;;
53751;SDS011;41095;53.090;6.692;2023-04-25T08:24:50;2.03;;;1.25;;
53751;SDS011;41095;53.090;6.692;2023-04-25T08:27:16;4.07;;;1.65;;
53751;SDS011;41095;53.090;6.692;2023-04-25T08:29:46;2.80;;;1.08;;
53751;SDS011;41095;53.090;6.692;2023-04-25T08:32:11;4.10;;;1.50;;
53751;SDS011;41095;53.090;6.692;2023-04-25T08:34:37;1.58;;;0.70;;
53751;SDS011;41095;53.090;6.692;2023-04-25T08:37:07;3.53;;;0.80;;
53751;SDS011;41095;53.090;6.692;2023-04-25T08:39:33;0.82;;;0.63;;
53751;SDS011;41095;53.090;6.692;2023-04-25T08:41:59;2.42;;;1.00;;
53751;SDS011;41095;53.090;6.692;2023-04-25T08:44:25;1.48;;;1.00;;
53751;SDS011;41095;53.090;6.692;2023-04-25T08:46:51;2.58;;;0.95;;
53751;SDS011;41095;53.090;6.692;2023-04-25T08:49:18;6.57;;;1.38;;
53751;SDS011;41095;53.090;6.692;2023-04-25T08:51:45;1.73;;;1.02;;
53751;SDS011;41095;53.090;6.692;2023-04-25T08:54:12;2.40;;;1.20;;
53751;SDS011;41095;53.090;6.692;2023-04-25T08:56:39;2.53;;;1.00;;
53751;SDS011;41095;53.090;6.692;2023-04-25T08:59:09;2.05;;;1.58;;
53751;SDS011;41095;53.090;6.692;2023-04-25T09:01:35;1.58;;;0.90;;
53751;SDS011;41095;53.090;6.692;2023-04-25T09:04:01;3.25;;;1.05;;
53751;SDS011;41095;53.090;6.692;2023-04-25T09:06:28;1.30;;;1.00;;
53751;SDS011;41095;53.090;6.692;2023-04-25T09:09:05;1.83;;;1.73;;
53751;SDS011;41095;53.090;6.692;2023-04-25T09:11:31;2.20;;;1.20;;
53751;SDS011;41095;53.090;6.692;2023-04-25T09:14:11;1.35;;;0.85;;
53751;SDS011;41095;53.090;6.692;2023-04-25T09:19:25;3.22;;;1.40;;
53751;SDS011;41095;53.090;6.692;2023-04-25T09:21:53;1.42;;;1.08;;
53751;SDS011;41095;53.090;6.692;2023-04-25T09:24:41;3.17;;;1.20;;
53751;SDS011;41095;53.090;6.692;2023-04-25T09:27:09;4.38;;;2.08;;
53751;SDS011;41095;53.090;6.692;2023-04-25T09:29:37;5.88;;;1.42;;
53751;SDS011;41095;53.090;6.692;2023-04-25T09:32:20;3.30;;;1.38;;
53751;SDS011;41095;53.090;6.692;2023-04-25T09:34:51;2.25;;;1.50;;
53751;SDS011;41095;53.090;6.692;2023-04-25T09:37:25;2.90;;;1.73;;
53751;SDS011;41095;53.090;6.692;2023-04-25T09:39:55;4.07;;;1.63;;
53751;SDS011;41095;53.090;6.692;2023-04-25T09:42:26;2.58;;;1.30;;
53751;SDS011;41095;53.090;6.692;2023-04-25T09:44:56;3.87;;;1.93;;
53751;SDS011;41095;53.090;6.692;2023-04-25T09:47:23;6.65;;;1.88;;
53751;SDS011;41095;53.090;6.692;2023-04-25T09:49:50;5.45;;;1.63;;
53751;SDS011;41095;53.090;6.692;2023-04-25T09:52:20;5.32;;;1.70;;
53751;SDS011;41095;53.090;6.692;2023-04-25T09:54:47;1.98;;;1.13;;
53751;SDS011;41095;53.090;6.692;2023-04-25T09:59:47;2.60;;;1.38;;
53751;SDS011;41095;53.090;6.692;2023-04-25T10:02:18;3.22;;;1.45;;
53751;SDS011;41095;53.090;6.692;2023-04-25T10:04:47;3.22;;;1.52;;
53751;SDS011;41095;53.090;6.692;2023-04-25T10:07:14;7.20;;;2.20;;
53751;SDS011;41095;53.090;6.692;2023-04-25T10:09:40;6.22;;;1.88;;
53751;SDS011;41095;53.090;6.692;2023-04-25T10:12:07;4.05;;;1.77;;
53751;SDS011;41095;53.090;6.692;2023-04-25T10:14:33;6.30;;;2.08;;
53751;SDS011;41095;53.090;6.692;2023-04-25T10:17:00;4.82;;;1.50;;
53751;SDS011;41095;53.090;6.692;2023-04-25T10:19:26;5.38;;;1.48;;
53751;SDS011;41095;53.090;6.692;2023-04-25T10:21:56;3.03;;;1.35;;
53751;SDS011;41095;53.090;6.692;2023-04-25T10:24:32;3.20;;;1.35;;
53751;SDS011;41095;53.090;6.692;2023-04-25T10:26:58;3.15;;;1.50;;
53751;SDS011;41095;53.090;6.692;2023-04-25T10:29:25;6.43;;;1.75;;
53751;SDS011;41095;53.090;6.692;2023-04-25T10:31:51;5.10;;;1.73;;
53751;SDS011;41095;53.090;6.692;2023-04-25T10:34:17;4.63;;;1.48;;
53751;SDS011;41095;53.090;6.692;2023-04-25T10:36:49;5.13;;;1.80;;
53751;SDS011;41095;53.090;6.692;2023-04-25T10:39:23;5.15;;;1.75;;
53751;SDS011;41095;53.090;6.692;2023-04-25T10:44:21;6.40;;;2.35;;
53751;SDS011;41095;53.090;6.692;2023-04-25T10:46:47;4.68;;;1.92;;
53751;SDS011;41095;53.090;6.692;2023-04-25T10:54:49;4.30;;;1.63;;
53751;SDS011;41095;53.090;6.692;2023-04-25T10:57:30;10.02;;;2.55;;
53751;SDS011;41095;53.090;6.692;2023-04-25T11:02:57;3.72;;;2.08;;
53751;SDS011;41095;53.090;6.692;2023-04-25T11:05:33;2.38;;;1.65;;
53751;SDS011;41095;53.090;6.692;2023-04-25T11:08:00;5.00;;;2.05;;
53751;SDS011;41095;53.090;6.692;2023-04-25T11:10:28;5.38;;;2.10;;
53751;SDS011;41095;53.090;6.692;2023-04-25T11:12:56;3.78;;;1.90;;
53751;SDS011;41095;53.090;6.692;2023-04-25T11:15:22;4.72;;;2.00;;
53751;SDS011;41095;53.090;6.692;2023-04-25T11:17:50;4.47;;;2.08;;
53751;SDS011;41095;53.090;6.692;2023-04-25T11:20:16;5.72;;;2.00;;
53751;SDS011;41095;53.090;6.692;2023-04-25T11:22:43;3.65;;;2.17;;
53751;SDS011;41095;53.090;6.692;2023-04-25T11:25:10;8.63;;;2.42;;
53751;SDS011;41095;53.090;6.692;2023-04-25T11:27:53;4.93;;;2.20;;
53751;SDS011;41095;53.090;6.692;2023-04-25T11:30:21;8.75;;;2.25;;
53751;SDS011;41095;53.090;6.692;2023-04-25T11:32:48;6.75;;;2.10;;
53751;SDS011;41095;53.090;6.692;2023-04-25T11:35:15;4.78;;;2.05;;
53751;SDS011;41095;53.090;6.692;2023-04-25T11:37:44;4.82;;;2.03;;
53751;SDS011;41095;53.090;6.692;2023-04-25T11:40:10;7.90;;;2.38;;
53751;SDS011;41095;53.090;6.692;2023-04-25T11:42:39;6.68;;;2.72;;
53751;SDS011;41095;53.090;6.692;2023-04-25T11:45:09;5.80;;;2.47;;
53751;SDS011;41095;53.090;6.692;2023-04-25T11:47:36;5.65;;;1.90;;
53751;SDS011;41095;53.090;6.692;2023-04-25T11:50:05;3.65;;;1.90;;
53751;SDS011;41095;53.090;6.692;2023-04-25T11:55:15;6.10;;;1.95;;
53751;SDS011;41095;53.090;6.692;2023-04-25T11:57:42;3.60;;;1.88;;
53751;SDS011;41095;53.090;6.692;2023-04-25T12:02:43;3.80;;;2.70;;
53751;SDS011;41095;53.090;6.692;2023-04-25T12:05:10;6.80;;;1.63;;
53751;SDS011;41095;53.090;6.692;2023-04-25T12:07:37;5.60;;;1.92;;
53751;SDS011;41095;53.090;6.692;2023-04-25T12:10:09;3.75;;;1.80;;
53751;SDS011;41095;53.090;6.692;2023-04-25T12:12:37;6.50;;;1.50;;
53751;SDS011;41095;53.090;6.692;2023-04-25T12:15:13;4.40;;;1.70;;
53751;SDS011;41095;53.090;6.692;2023-04-25T12:17:44;5.07;;;2.20;;
53751;SDS011;41095;53.090;6.692;2023-04-25T12:20:15;4.13;;;1.95;;
53751;SDS011;41095;53.090;6.692;2023-04-25T12:22:51;3.47;;;1.70;;
53751;SDS011;41095;53.090;6.692;2023-04-25T12:28:18;6.40;;;1.95;;
53751;SDS011;41095;53.090;6.692;2023-04-25T12:33:41;4.72;;;1.90;;
53751;SDS011;41095;53.090;6.692;2023-04-25T12:36:08;4.03;;;1.50;;
53751;SDS011;41095;53.090;6.692;2023-04-25T12:38:39;4.68;;;2.00;;
53751;SDS011;41095;53.090;6.692;2023-04-25T12:41:06;5.70;;;2.00;;
53751;SDS011;41095;53.090;6.692;2023-04-25T12:43:33;5.88;;;2.17;;
53751;SDS011;41095;53.090;6.692;2023-04-25T12:45:59;7.03;;;2.42;;
53751;SDS011;41095;53.090;6.692;2023-04-25T12:48:24;3.58;;;1.85;;
53751;SDS011;41095;53.090;6.692;2023-04-25T12:50:50;2.38;;;1.55;;
53751;SDS011;41095;53.090;6.692;2023-04-25T12:53:17;4.05;;;2.08;;
53751;SDS011;41095;53.090;6.692;2023-04-25T12:55:47;2.78;;;1.40;;
53751;SDS011;41095;53.090;6.692;2023-04-25T12:58:17;4.40;;;1.88;;
53751;SDS011;41095;53.090;6.692;2023-04-25T13:00:44;3.25;;;1.73;;
53751;SDS011;41095;53.090;6.692;2023-04-25T13:03:10;3.10;;;1.58;;
53751;SDS011;41095;53.090;6.692;2023-04-25T13:05:37;6.85;;;2.28;;
53751;SDS011;41095;53.090;6.692;2023-04-25T13:08:04;5.20;;;2.15;;
53751;SDS011;41095;53.090;6.692;2023-04-25T13:10:30;6.57;;;1.90;;
53751;SDS011;41095;53.090;6.692;2023-04-25T13:12:56;6.45;;;2.55;;
53751;SDS011;41095;53.090;6.692;2023-04-25T13:15:22;5.85;;;1.80;;
53751;SDS011;41095;53.090;6.692;2023-04-25T13:17:48;5.20;;;2.10;;
53751;SDS011;41095;53.090;6.692;2023-04-25T13:20:14;4.25;;;1.65;;
53751;SDS011;41095;53.090;6.692;2023-04-25T13:22:41;2.63;;;1.92;;
53751;SDS011;41095;53.090;6.692;2023-04-25T13:25:08;7.28;;;1.88;;
53751;SDS011;41095;53.090;6.692;2023-04-25T13:27:34;3.15;;;1.70;;
53751;SDS011;41095;53.090;6.692;2023-04-25T13:30:01;5.53;;;2.00;;
53751;SDS011;41095;53.090;6.692;2023-04-25T13:32:35;6.07;;;2.42;;
53751;SDS011;41095;53.090;6.692;2023-04-25T13:35:02;8.32;;;2.28;;
53751;SDS011;41095;53.090;6.692;2023-04-25T13:37:29;4.85;;;2.33;;
53751;SDS011;41095;53.090;6.692;2023-04-25T13:39:58;10.60;;;2.38;;
53751;SDS011;41095;53.090;6.692;2023-04-25T13:42:25;6.07;;;2.53;;
53751;SDS011;41095;53.090;6.692;2023-04-25T13:44:51;6.95;;;2.47;;
53751;SDS011;41095;53.090;6.692;2023-04-25T13:47:16;5.13;;;2.60;;
53751;SDS011;41095;53.090;6.692;2023-04-25T13:49:42;3.75;;;2.10;;
53751;SDS011;41095;53.090;6.692;2023-04-25T13:52:08;5.95;;;2.08;;
53751;SDS011;41095;53.090;6.692;2023-04-25T13:54:34;8.88;;;2.40;;
53751;SDS011;41095;53.090;6.692;2023-04-25T13:56:59;5.88;;;2.38;;
53751;SDS011;41095;53.090;6.692;2023-04-25T13:59:26;6.85;;;2.20;;
53751;SDS011;41095;53.090;6.692;2023-04-25T14:01:52;4.72;;;2.42;;
53751;SDS011;41095;53.090;6.692;2023-04-25T14:04:18;5.90;;;2.05;;
53751;SDS011;41095;53.090;6.692;2023-04-25T14:06:44;3.95;;;1.95;;
53751;SDS011;41095;53.090;6.692;2023-04-25T14:09:10;3.58;;;1.70;;
53751;SDS011;41095;53.090;6.692;2023-04-25T14:11:38;4.43;;;1.70;;
53751;SDS011;41095;53.090;6.692;2023-04-25T14:14:04;4.20;;;2.15;;
53751;SDS011;41095;53.090;6.692;2023-04-25T14:16:30;8.27;;;2.00;;
53751;SDS011;41095;53.090;6.692;2023-04-25T14:18:59;3.97;;;1.73;;
53751;SDS011;41095;53.090;6.692;2023-04-25T14:21:25;3.85;;;2.17;;
53751;SDS011;41095;53.090;6.692;2023-04-25T14:23:52;4.97;;;2.03;;
53751;SDS011;41095;53.090;6.692;2023-04-25T14:26:17;5.05;;;2.10;;
53751;SDS011;41095;53.090;6.692;2023-04-25T14:28:43;4.75;;;2.28;;
53751;SDS011;41095;53.090;6.692;2023-04-25T14:31:13;4.10;;;1.92;;
53751;SDS011;41095;53.090;6.692;2023-04-25T14:33:41;6.88;;;2.53;;
53751;SDS011;41095;53.090;6.692;2023-04-25T14:36:08;7.50;;;2.13;;
53751;SDS011;41095;53.090;6.692;2023-04-25T14:38:34;6.05;;;2.53;;
53751;SDS011;41095;53.090;6.692;2023-04-25T14:41:00;8.38;;;2.75;;
53751;SDS011;41095;53.090;6.692;2023-04-25T14:43:26;5.80;;;2.78;;
53751;SDS011;41095;53.090;6.692;2023-04-25T14:45:51;10.63;;;2.92;;
53751;SDS011;41095;53.090;6.692;2023-04-25T14:48:17;6.45;;;2.72;;
53751;SDS011;41095;53.090;6.692;2023-04-25T14:50:44;3.40;;;2.10;;
53751;SDS011;41095;53.090;6.692;2023-04-25T14:53:10;5.80;;;2.15;;
53751;SDS011;41095;53.090;6.692;2023-04-25T14:55:37;6.15;;;1.88;;
53751;SDS011;41095;53.090;6.692;2023-04-25T14:58:03;6.47;;;2.40;;
53751;SDS011;41095;53.090;6.692;2023-04-25T15:00:28;4.32;;;1.85;;
53751;SDS011;41095;53.090;6.692;2023-04-25T15:02:56;4.95;;;2.50;;
53751;SDS011;41095;53.090;6.692;2023-04-25T15:05:23;4.35;;;1.92;;
53751;SDS011;41095;53.090;6.692;2023-04-25T15:07:48;7.20;;;2.10;;